Central Valley, Washington
Current Conditions -  °F | °C
As of 12:15 AM on Tuesday 21 Oct 2014 (Local Time) from KPWT Reporting Station
Overcast Overcast  
Wind Chill: 54°   Ceiling: 500
Heat Index: 54°   Visibility: 10mi
Dew Point: 54°   Wind: 9mph
Humidity: 100%   Direction: 170°S
Pressure: 29.82"   Gusts: NA
Location:  47.7571°N, 122.623°W
Report Text: KPWT 210715Z AUTO 17008KT 10SM OVC005 12/12 A2982 RMK AO1
Loading
Personal Weather Stations






























Interactive Weather Map
Tropical Storm Tracking
New forecast layout! Learn more

10-Day Weather Forecast

Advertisements
Track Severe Weather on mobile